Nyk Rumina — 9V7645 — position and weather

sailwx.info

Track history (hours):
 
Tides and Currents Weather Stations Pressure Air Temp Water Temp Dewpoint Dewpoint Depression Visibility Wind Speed Wind Dir Waves Ship Positions

Nyk Rumina

Last reported at 2017-Nov-16 08:11 UTC. Time now 2017-Nov-23 01:30 UTC.
Position N 10°18' W 075°43'.

Length 294 m; draft 11.5 m.

Type: Ship. MMSI: 563758000.

Date/timePositionNaut miles runAvg speedWind from/ knotsBaromVisibWave heightAir tempDewpointWater temp
2017-Nov-16 08:11N 10°18' W 075°43'212.7
2017-Nov-16 08:00N 10°18' W 075°41'610.7
2017-Nov-16 07:29N 10°19' W 075°36'4 9.1
2017-Nov-16 07:00N 10°20' W 075°31'4 7.8
2017-Nov-16 06:30N 10°24' W 075°32'0 0.7
2017-Nov-16 05:59N 10°24' W 075°32'0 0.0
2017-Nov-16 05:29N 10°24' W 075°32'0 0.0
2017-Nov-16 04:59N 10°24' W 075°32'0 0.0
2017-Nov-16 04:29N 10°24' W 075°32'0 0.0
2017-Nov-16 03:59N 10°24' W 075°32'0 0.0
2017-Nov-16 03:29N 10°24' W 075°32'0 0.0
2017-Nov-16 02:59N 10°24' W 075°32'0 0.0
2017-Nov-16 02:29N 10°24' W 075°32'0 0.0
2017-Nov-16 01:59N 10°24' W 075°32'0 0.0
2017-Nov-16 01:29N 10°24' W 075°32'0 0.0
2017-Nov-16 00:59N 10°24' W 075°32'0 0.0
2017-Nov-16 00:29N 10°24' W 075°32'0 0.0
2017-Nov-15 23:59N 10°24' W 075°32'0 0.0
2017-Nov-15 23:23N 10°24' W 075°32'0 0.0
2017-Nov-15 22:59N 10°24' W 075°32'0 0.0
2017-Nov-15 22:29N 10°24' W 075°32'0 0.0
2017-Nov-15 21:59N 10°24' W 075°32'0 0.0
2017-Nov-15 21:29N 10°24' W 075°32'0 0.0
2017-Nov-15 20:59N 10°24' W 075°32'0 0.0
2017-Nov-15 20:29N 10°24' W 075°32'0 0.0
2017-Nov-15 19:56N 10°24' W 075°32'0 0.0
2017-Nov-15 19:29N 10°24' W 075°32'1 1.1
2017-Nov-15 19:00N 10°24' W 075°32'4 7.7
2017-Nov-15 18:30N 10°20' W 075°32'4 8.5
2017-Nov-15 18:00N 10°19' W 075°37'611.8
2017-Nov-15 17:30N 10°22' W 075°42'713.7
2017-Nov-15 17:00N 10°28' W 075°42'815.3
2017-Nov-15 16:30N 10°36' W 075°42'  
2017-Nov-12 15:25N 31°51' W 080°23'512.8
2017-Nov-12 15:00N 31°53' W 080°28'5 9.4
2017-Nov-12 14:30N 31°55' W 080°34'5 9.7
2017-Nov-12 14:00N 31°56' W 080°39'5 9.5
2017-Nov-12 13:31N 31°58' W 080°44'714.6
2017-Nov-12 13:01N 32°02' W 080°52'611.7
2017-Nov-12 12:30N 32°04' W 080°58'5 9.2
2017-Nov-12 12:00N 32°05' W 081°03'3 6.8
2017-Nov-12 11:30N 32°06' W 081°07'1 2.9
2017-Nov-12 11:00N 32°07' W 081°08'0 0.0
2017-Nov-12 10:30N 32°07' W 081°08'0 0.0
2017-Nov-12 10:00N 32°07' W 081°08'0 0.0
2017-Nov-12 09:30N 32°07' W 081°08'0 0.0
2017-Nov-12 09:00N 32°07' W 081°08'0 0.0
2017-Nov-12 08:30N 32°07' W 081°08'0 0.0
2017-Nov-12 07:54N 32°07' W 081°08'0 0.0
2017-Nov-12 07:24N 32°07' W 081°08'0 0.0
2017-Nov-12 06:54N 32°07' W 081°08'0 0.0
2017-Nov-12 06:30N 32°07' W 081°08'0 0.0
2017-Nov-12 06:00N 32°07' W 081°08'0 0.0
2017-Nov-12 05:30N 32°07' W 081°08'0 0.0
2017-Nov-12 05:00N 32°07' W 081°08'0 0.0
2017-Nov-12 04:30N 32°07' W 081°08'0 0.0
2017-Nov-12 04:00N 32°07' W 081°08'0 0.0
2017-Nov-12 03:24N 32°07' W 081°08'0 0.0
2017-Nov-12 03:00N 32°07' W 081°08'0 0.0
2017-Nov-12 02:30N 32°07' W 081°08'0 0.0
2017-Nov-12 01:54N 32°07' W 081°08'0 0.0
2017-Nov-12 01:30N 32°07' W 081°08'0 0.0
2017-Nov-12 01:00N 32°07' W 081°08'0 0.0
2017-Nov-12 00:30N 32°07' W 081°08'0 0.0
2017-Nov-12 00:00N 32°07' W 081°08'0 0.0
2017-Nov-11 23:30N 32°07' W 081°08'0 0.0
2017-Nov-11 22:54N 32°07' W 081°08'0 0.0
2017-Nov-11 22:30N 32°07' W 081°08'0 0.0
2017-Nov-11 22:00N 32°07' W 081°08'0 0.0
2017-Nov-11 21:24N 32°07' W 081°08'0 0.3
2017-Nov-11 21:00N 32°08' W 081°08'0 0.7
2017-Nov-11 20:30N 32°08' W 081°08'2 4.9
2017-Nov-11 20:00N 32°06' W 081°07'3 5.8
2017-Nov-11 19:30N 32°05' W 081°03'4 7.7
2017-Nov-11 18:59N 32°05' W 080°59'4 8.4
2017-Nov-11 18:30N 32°02' W 080°55'613.1
2017-Nov-11 18:00N 32°00' W 080°48'713.1
2017-Nov-11 17:29N 31°56' W 080°41'4 8.6
2017-Nov-11 17:00N 31°55' W 080°36'3 6.1
2017-Nov-11 16:30N 31°54' W 080°33'1 2.2
2017-Nov-11 16:00N 31°55' W 080°31'1 2.3
2017-Nov-11 15:30N 31°55' W 080°30'1 2.3
2017-Nov-11 15:00N 31°55' W 080°29'1 2.3
2017-Nov-11 14:30N 31°56' W 080°28'2 4.5
2017-Nov-11 14:00N 31°56' W 080°25'  
Track history (hours):
 
Tides and Currents Weather Stations Pressure Air Temp Water Temp Dewpoint Dewpoint Depression Visibility Wind Speed Wind Dir Waves Ship Positions

Nyk Rumina

Last reported at 2017-Nov-16 08:11 UTC. Time now 2017-Nov-23 01:30 UTC.
Position N 10°18' W 075°43'.

Length 294 m; draft 11.5 m.

Type: Ship. MMSI: 563758000.

Date/timePositionNaut miles runAvg speedWind from/ knotsBaromVisibWave heightAir tempDewpointWater temp
2017-Nov-16 08:11N 10°18' W 075°43'212.7
2017-Nov-16 08:00N 10°18' W 075°41'610.7
2017-Nov-16 07:29N 10°19' W 075°36'4 9.1
2017-Nov-16 07:00N 10°20' W 075°31'4 7.8
2017-Nov-16 06:30N 10°24' W 075°32'0 0.7
2017-Nov-16 05:59N 10°24' W 075°32'0 0.0
2017-Nov-16 05:29N 10°24' W 075°32'0 0.0
2017-Nov-16 04:59N 10°24' W 075°32'0 0.0
2017-Nov-16 04:29N 10°24' W 075°32'0 0.0
2017-Nov-16 03:59N 10°24' W 075°32'0 0.0
2017-Nov-16 03:29N 10°24' W 075°32'0 0.0
2017-Nov-16 02:59N 10°24' W 075°32'0 0.0
2017-Nov-16 02:29N 10°24' W 075°32'0 0.0
2017-Nov-16 01:59N 10°24' W 075°32'0 0.0
2017-Nov-16 01:29N 10°24' W 075°32'0 0.0
2017-Nov-16 00:59N 10°24' W 075°32'0 0.0
2017-Nov-16 00:29N 10°24' W 075°32'0 0.0
2017-Nov-15 23:59N 10°24' W 075°32'0 0.0
2017-Nov-15 23:23N 10°24' W 075°32'0 0.0
2017-Nov-15 22:59N 10°24' W 075°32'0 0.0
2017-Nov-15 22:29N 10°24' W 075°32'0 0.0
2017-Nov-15 21:59N 10°24' W 075°32'0 0.0
2017-Nov-15 21:29N 10°24' W 075°32'0 0.0
2017-Nov-15 20:59N 10°24' W 075°32'0 0.0
2017-Nov-15 20:29N 10°24' W 075°32'0 0.0
2017-Nov-15 19:56N 10°24' W 075°32'0 0.0
2017-Nov-15 19:29N 10°24' W 075°32'1 1.1
2017-Nov-15 19:00N 10°24' W 075°32'4 7.7
2017-Nov-15 18:30N 10°20' W 075°32'4 8.5
2017-Nov-15 18:00N 10°19' W 075°37'611.8
2017-Nov-15 17:30N 10°22' W 075°42'713.7
2017-Nov-15 17:00N 10°28' W 075°42'815.3
2017-Nov-15 16:30N 10°36' W 075°42'  
2017-Nov-12 15:25N 31°51' W 080°23'512.8
2017-Nov-12 15:00N 31°53' W 080°28'5 9.4
2017-Nov-12 14:30N 31°55' W 080°34'5 9.7
2017-Nov-12 14:00N 31°56' W 080°39'5 9.5
2017-Nov-12 13:31N 31°58' W 080°44'714.6
2017-Nov-12 13:01N 32°02' W 080°52'611.7
2017-Nov-12 12:30N 32°04' W 080°58'5 9.2
2017-Nov-12 12:00N 32°05' W 081°03'3 6.8
2017-Nov-12 11:30N 32°06' W 081°07'1 2.9
2017-Nov-12 11:00N 32°07' W 081°08'0 0.0
2017-Nov-12 10:30N 32°07' W 081°08'0 0.0
2017-Nov-12 10:00N 32°07' W 081°08'0 0.0
2017-Nov-12 09:30N 32°07' W 081°08'0 0.0
2017-Nov-12 09:00N 32°07' W 081°08'0 0.0
2017-Nov-12 08:30N 32°07' W 081°08'0 0.0
2017-Nov-12 07:54N 32°07' W 081°08'0 0.0
2017-Nov-12 07:24N 32°07' W 081°08'0 0.0
2017-Nov-12 06:54N 32°07' W 081°08'0 0.0
2017-Nov-12 06:30N 32°07' W 081°08'0 0.0
2017-Nov-12 06:00N 32°07' W 081°08'0 0.0
2017-Nov-12 05:30N 32°07' W 081°08'0 0.0
2017-Nov-12 05:00N 32°07' W 081°08'0 0.0
2017-Nov-12 04:30N 32°07' W 081°08'0 0.0
2017-Nov-12 04:00N 32°07' W 081°08'0 0.0
2017-Nov-12 03:24N 32°07' W 081°08'0 0.0
2017-Nov-12 03:00N 32°07' W 081°08'0 0.0
2017-Nov-12 02:30N 32°07' W 081°08'0 0.0
2017-Nov-12 01:54N 32°07' W 081°08'0 0.0
2017-Nov-12 01:30N 32°07' W 081°08'0 0.0
2017-Nov-12 01:00N 32°07' W 081°08'0 0.0
2017-Nov-12 00:30N 32°07' W 081°08'0 0.0
2017-Nov-12 00:00N 32°07' W 081°08'0 0.0
2017-Nov-11 23:30N 32°07' W 081°08'0 0.0
2017-Nov-11 22:54N 32°07' W 081°08'0 0.0
2017-Nov-11 22:30N 32°07' W 081°08'0 0.0
2017-Nov-11 22:00N 32°07' W 081°08'0 0.0
2017-Nov-11 21:24N 32°07' W 081°08'0 0.3
2017-Nov-11 21:00N 32°08' W 081°08'0 0.7
2017-Nov-11 20:30N 32°08' W 081°08'2 4.9
2017-Nov-11 20:00N 32°06' W 081°07'3 5.8
2017-Nov-11 19:30N 32°05' W 081°03'4 7.7
2017-Nov-11 18:59N 32°05' W 080°59'4 8.4
2017-Nov-11 18:30N 32°02' W 080°55'613.1
2017-Nov-11 18:00N 32°00' W 080°48'713.1
2017-Nov-11 17:29N 31°56' W 080°41'4 8.6
2017-Nov-11 17:00N 31°55' W 080°36'3 6.1
2017-Nov-11 16:30N 31°54' W 080°33'1 2.2
2017-Nov-11 16:00N 31°55' W 080°31'1 2.3
2017-Nov-11 15:30N 31°55' W 080°30'1 2.3
2017-Nov-11 15:00N 31°55' W 080°29'1 2.3
2017-Nov-11 14:30N 31°56' W 080°28'2 4.5
2017-Nov-11 14:00N 31°56' W 080°25'  

Dump ship's entire track history